createdAt,value
2019-01-17T00:01:16.417Z,6.89
2019-01-17T00:04:06.158Z,6.85
2019-01-17T00:06:36.185Z,6.91
2019-01-17T00:09:06.523Z,6.92
2019-01-17T00:11:36.846Z,6.90
2019-01-17T00:14:06.871Z,6.85
2019-01-17T00:16:36.909Z,6.75
2019-01-17T00:19:07.304Z,6.90
2019-01-17T00:21:37.631Z,6.66
2019-01-17T00:24:07.954Z,6.67
2019-01-17T00:26:38.276Z,6.98
2019-01-17T00:29:08.292Z,7.00
2019-01-17T00:31:38.317Z,6.51
2019-01-17T00:34:08.324Z,6.74
2019-01-17T00:36:38.340Z,6.82
2019-01-17T00:39:08.662Z,6.81
2019-01-17T00:41:38.974Z,6.94
2019-01-17T00:44:08.995Z,6.65
2019-01-17T00:46:39.316Z,6.96
2019-01-17T00:49:09.637Z,6.85
2019-01-17T00:51:39.957Z,6.82
2019-01-17T00:54:09.981Z,6.79
2019-01-17T00:56:40.029Z,6.74
2019-01-17T00:59:10.036Z,6.91
2019-01-17T01:01:40.068Z,7.14
2019-01-17T01:04:10.442Z,7.10
2019-01-17T01:06:40.472Z,7.12
2019-01-17T01:09:10.782Z,7.20
2019-01-17T01:11:41.134Z,6.89
2019-01-17T01:14:11.148Z,7.00
2019-01-17T01:19:20.883Z,7.18
2019-01-17T01:21:50.906Z,7.17
2019-01-17T01:24:21.213Z,7.21
2019-01-17T01:26:51.234Z,7.18
2019-01-17T01:29:21.247Z,6.95
2019-01-17T01:31:51.277Z,6.95
2019-01-17T01:34:21.306Z,7.11
2019-01-17T01:36:51.325Z,7.42
2019-01-17T01:39:21.619Z,7.33
2019-01-17T01:41:51.636Z,7.00
2019-01-17T01:44:21.644Z,6.93
2019-01-17T01:46:51.678Z,7.04
2019-01-17T01:49:21.693Z,7.12
2019-01-17T01:51:51.992Z,7.25
2019-01-17T01:54:22.334Z,7.34
2019-01-17T01:56:52.374Z,7.61
2019-01-17T01:59:22.387Z,7.30
2019-01-17T02:01:52.418Z,7.57
2019-01-17T02:04:22.427Z,7.42
2019-01-17T02:06:52.466Z,7.27
2019-01-17T02:09:22.746Z,7.32
2019-01-17T02:11:52.867Z,7.39
2019-01-17T02:14:23.156Z,7.14
2019-01-17T02:16:53.477Z,6.94
2019-01-17T02:19:23.492Z,7.08
2019-01-17T02:21:53.525Z,7.50
2019-01-17T02:24:28.490Z,7.57
2019-01-17T02:26:53.579Z,7.32
2019-01-17T02:29:23.584Z,7.37
2019-01-17T02:31:53.598Z,7.27
2019-01-17T02:34:23.625Z,7.63
2019-01-17T02:36:54.009Z,7.54
2019-01-17T02:39:24.027Z,7.65
2019-01-17T02:41:54.056Z,7.47
2019-01-17T02:44:24.371Z,7.18
2019-01-17T02:46:54.689Z,7.67
2019-01-17T02:49:24.707Z,7.40
2019-01-17T02:51:54.735Z,7.29
2019-01-17T02:54:25.217Z,7.39
2019-01-17T02:56:55.071Z,7.55
2019-01-17T02:59:25.087Z,7.16
2019-01-17T03:01:55.120Z,7.38
2019-01-17T03:04:25.405Z,7.41
2019-01-17T03:06:55.728Z,7.36
2019-01-17T03:09:25.755Z,7.48
2019-01-17T03:11:56.068Z,7.31
2019-01-17T03:14:26.078Z,7.60
2019-01-17T03:16:56.113Z,7.61
2019-01-17T03:19:26.118Z,7.62
2019-01-17T03:21:56.151Z,7.35
2019-01-17T03:24:26.167Z,7.48
2019-01-17T03:26:56.203Z,7.62
2019-01-17T03:29:26.581Z,7.45
2019-01-17T03:31:56.935Z,7.17
2019-01-17T03:34:26.922Z,7.26
2019-01-17T03:36:56.953Z,7.57
2019-01-17T03:39:27.260Z,7.43
2019-01-17T03:41:57.299Z,7.49
2019-01-17T03:44:27.314Z,7.41
2019-01-17T03:46:57.680Z,7.30
2019-01-17T03:49:27.705Z,7.42
2019-01-17T03:51:57.722Z,7.25
2019-01-17T03:54:27.744Z,7.63
2019-01-17T03:56:58.018Z,7.52
2019-01-17T03:59:28.078Z,7.50
2019-01-17T04:01:58.414Z,7.51
2019-01-17T04:04:28.446Z,7.38
2019-01-17T04:06:58.463Z,7.42
2019-01-17T04:09:28.493Z,7.58
2019-01-17T04:11:58.785Z,7.58
2019-01-17T04:14:29.109Z,7.54
2019-01-17T04:16:59.123Z,7.47
2019-01-17T04:19:29.155Z,7.74
2019-01-17T04:21:59.161Z,7.75
2019-01-17T04:24:29.226Z,7.75
2019-01-17T04:26:59.242Z,7.60
2019-01-17T04:29:29.609Z,7.73
2019-01-17T04:31:59.636Z,7.54
2019-01-17T04:34:30.053Z,7.72
2019-01-17T04:37:00.386Z,7.65
2019-01-17T04:39:30.711Z,7.78
2019-01-17T04:42:00.725Z,7.91
2019-01-17T04:44:30.742Z,7.67
2019-01-17T04:47:00.759Z,8.04
2019-01-17T04:49:30.788Z,8.07
2019-01-17T04:52:00.807Z,8.13
2019-01-17T04:54:30.839Z,8.04
2019-01-17T04:57:00.845Z,8.02
2019-01-17T04:59:30.861Z,7.87
2019-01-17T05:02:00.877Z,7.73
2019-01-17T05:04:30.915Z,7.81
2019-01-17T05:07:00.910Z,7.97
2019-01-17T05:09:30.940Z,7.86
2019-01-17T05:12:00.957Z,8.11
2019-01-17T05:14:31.319Z,8.14
2019-01-17T05:17:01.335Z,8.07
2019-01-17T05:19:31.456Z,7.95
2019-01-17T05:22:01.768Z,8.12
2019-01-17T05:24:31.802Z,8.06
2019-01-17T05:27:01.818Z,7.60
2019-01-17T05:29:31.856Z,8.02
2019-01-17T05:32:02.244Z,7.91
2019-01-17T05:34:38.987Z,8.17
2019-01-17T05:37:02.584Z,8.06
2019-01-17T05:39:32.620Z,8.09
2019-01-17T05:42:03.017Z,8.30
2019-01-17T05:44:33.047Z,8.29
2019-01-17T05:47:03.064Z,8.37
2019-01-17T05:49:33.094Z,8.19
2019-01-17T05:52:03.107Z,7.70
2019-01-17T05:54:33.506Z,8.18
2019-01-17T05:57:03.522Z,8.18
2019-01-17T05:59:33.552Z,8.22
2019-01-17T06:02:03.575Z,8.20
2019-01-17T06:04:33.593Z,8.31
2019-01-17T06:07:03.890Z,8.05
2019-01-17T06:09:33.907Z,7.90
2019-01-17T06:12:03.925Z,8.13
2019-01-17T06:14:33.936Z,8.21
2019-01-17T06:17:03.947Z,8.11
2019-01-17T06:19:33.971Z,7.90
2019-01-17T06:22:04.289Z,7.70
2019-01-17T06:24:34.317Z,7.92
2019-01-17T06:27:04.622Z,8.05
2019-01-17T06:29:34.650Z,7.73
2019-01-17T06:32:04.662Z,7.82
2019-01-17T06:34:34.691Z,8.06
2019-01-17T06:37:04.700Z,8.11
2019-01-17T06:39:35.105Z,8.06
2019-01-17T06:42:05.117Z,7.82
2019-01-17T06:44:35.442Z,7.97
2019-01-17T06:47:05.764Z,7.78
2019-01-17T06:49:36.115Z,7.81
2019-01-17T06:52:06.414Z,7.98
2019-01-17T06:54:36.444Z,8.00
2019-01-17T06:57:06.472Z,7.76
2019-01-17T06:59:36.816Z,8.06
2019-01-17T07:02:06.852Z,8.02
2019-01-17T07:04:37.209Z,7.90
2019-01-17T07:07:07.521Z,7.94
2019-01-17T07:09:37.553Z,7.92
2019-01-17T07:12:07.574Z,7.86
2019-01-17T07:14:37.611Z,8.05
2019-01-17T07:17:07.628Z,8.01
2019-01-17T07:19:37.652Z,7.74
2019-01-17T07:22:07.666Z,7.78
2019-01-17T07:24:37.699Z,7.87
2019-01-17T07:27:07.707Z,7.77
2019-01-17T07:29:37.995Z,8.04
2019-01-17T07:32:08.013Z,7.88
2019-01-17T07:34:38.038Z,7.65
2019-01-17T07:37:08.059Z,7.78
2019-01-17T07:39:38.088Z,7.83
2019-01-17T07:42:08.096Z,7.59
2019-01-17T07:44:38.572Z,7.87
2019-01-17T07:47:08.897Z,7.90
2019-01-17T07:49:38.935Z,8.04
2019-01-17T07:52:08.957Z,7.92
2019-01-17T07:54:38.990Z,7.97
2019-01-17T07:57:09.018Z,8.06
2019-01-17T07:59:39.042Z,8.10
2019-01-17T08:02:09.421Z,8.09
2019-01-17T08:04:39.718Z,7.99
2019-01-17T08:07:09.751Z,8.01
2019-01-17T08:09:39.787Z,8.27
2019-01-17T08:12:10.128Z,8.17
2019-01-17T08:14:40.157Z,8.19
2019-01-17T08:17:10.162Z,7.98
2019-01-17T08:19:40.185Z,8.24
2019-01-17T08:22:10.477Z,7.80
2019-01-17T08:24:40.762Z,7.66
2019-01-17T08:27:11.086Z,8.16
2019-01-17T08:29:41.103Z,8.20
2019-01-17T08:32:11.120Z,8.12
2019-01-17T08:34:41.143Z,7.80
2019-01-17T08:37:11.153Z,8.08
2019-01-17T08:39:41.191Z,8.13
2019-01-17T08:42:11.207Z,8.22
2019-01-17T08:44:41.241Z,8.34
2019-01-17T08:47:11.517Z,8.17
2019-01-17T08:49:41.549Z,8.27
2019-01-17T08:52:11.849Z,8.21
2019-01-17T08:54:42.176Z,8.18
2019-01-17T08:57:12.191Z,8.25
2019-01-17T08:59:42.505Z,8.26
2019-01-17T09:02:12.520Z,8.17
2019-01-17T09:04:42.547Z,8.50
2019-01-17T09:07:12.582Z,8.42
2019-01-17T09:09:42.872Z,8.52
2019-01-17T09:12:12.892Z,8.41
2019-01-17T09:14:42.940Z,8.48
2019-01-17T09:17:12.964Z,8.60
2019-01-17T09:19:42.996Z,8.33
2019-01-17T09:22:13.078Z,8.50
2019-01-17T09:24:43.115Z,8.60
2019-01-17T09:27:13.130Z,8.86
2019-01-17T09:29:43.171Z,8.94
2019-01-17T09:32:13.189Z,8.62
2019-01-17T09:34:43.214Z,8.63
2019-01-17T09:37:13.270Z,8.62
2019-01-17T09:39:43.575Z,8.63
2019-01-17T09:42:13.597Z,8.64
2019-01-17T09:44:43.609Z,8.63
2019-01-17T09:47:13.924Z,8.76
2019-01-17T09:49:43.939Z,8.70
2019-01-17T09:52:14.227Z,8.58
2019-01-17T09:54:44.243Z,8.58
2019-01-17T09:57:14.599Z,8.83
2019-01-17T09:59:44.608Z,8.50
2019-01-17T10:02:14.933Z,8.68
2019-01-17T10:04:44.952Z,8.49
2019-01-17T10:07:14.978Z,8.77
2019-01-17T10:09:44.991Z,8.82
2019-01-17T10:12:15.303Z,8.80
2019-01-17T10:14:45.731Z,8.89
2019-01-17T10:17:15.760Z,8.59
2019-01-17T10:28:02.072Z,8.79
2019-01-17T10:33:30.187Z,8.80
2019-01-17T10:36:09.316Z,8.81
2019-01-17T10:47:34.989Z,8.98
2019-01-17T10:50:10.535Z,9.18
2019-01-17T10:52:46.720Z,9.09
2019-01-17T11:00:40.994Z,8.91
2019-01-17T11:03:29.138Z,9.14
2019-01-17T11:06:20.768Z,8.96
2019-01-17T11:08:53.480Z,8.90
2019-01-17T11:11:50.593Z,8.92
2019-01-17T11:14:58.130Z,8.94
2019-01-17T11:20:32.105Z,8.99
2019-01-17T11:26:26.800Z,8.88
2019-01-17T11:32:06.207Z,9.09
2019-01-17T11:34:36.593Z,8.85
2019-01-17T11:40:12.500Z,9.01
2019-01-17T11:42:48.380Z,9.01
2019-01-17T11:45:40.028Z,8.85
2019-01-17T11:53:52.193Z,8.63
2019-01-17T11:56:40.905Z,8.77
2019-01-17T12:04:53.161Z,8.86
2019-01-17T12:07:23.193Z,9.01
2019-01-17T12:09:53.212Z,9.05
2019-01-17T12:12:23.238Z,9.09
2019-01-17T12:14:53.531Z,9.00
2019-01-17T12:17:23.546Z,8.85
2019-01-17T12:19:53.563Z,8.78
2019-01-17T12:22:24.737Z,8.91
2019-01-17T12:24:54.009Z,8.85
2019-01-17T12:27:24.431Z,9.15
2019-01-17T12:29:54.758Z,9.10
2019-01-17T12:32:25.068Z,8.58
2019-01-17T12:34:55.084Z,8.81
2019-01-17T12:37:25.393Z,8.78
2019-01-17T12:39:55.717Z,8.47
2019-01-17T12:42:26.044Z,8.69
2019-01-17T12:44:56.334Z,8.98
2019-01-17T12:47:26.717Z,8.81
2019-01-17T12:49:56.733Z,8.73
2019-01-17T12:52:26.766Z,9.04
2019-01-17T12:54:56.766Z,8.60
2019-01-17T12:57:26.805Z,8.48
2019-01-17T12:59:56.827Z,8.72
2019-01-17T13:02:26.852Z,8.52
2019-01-17T13:04:56.853Z,9.02
2019-01-17T13:07:26.884Z,8.79
2019-01-17T13:09:57.239Z,8.66
2019-01-17T13:12:27.564Z,8.53
2019-01-17T13:14:57.586Z,8.84
2019-01-17T13:17:27.611Z,8.98
2019-01-17T13:19:57.625Z,8.88
2019-01-17T13:22:27.937Z,9.10
2019-01-17T13:24:58.249Z,8.93
2019-01-17T13:27:28.280Z,9.09
2019-01-17T13:29:58.296Z,9.08
2019-01-17T13:32:28.605Z,8.77
2019-01-17T13:34:58.620Z,8.72
2019-01-17T13:37:28.943Z,8.91
2019-01-17T13:39:58.962Z,9.15
2019-01-17T13:42:29.286Z,8.74
2019-01-17T13:44:59.309Z,8.85
2019-01-17T13:47:29.626Z,9.07
2019-01-17T13:49:59.636Z,9.25
2019-01-17T13:52:29.956Z,9.07
2019-01-17T13:54:59.969Z,9.01
2019-01-17T13:57:30.003Z,9.11
2019-01-17T13:59:59.996Z,8.92
2019-01-17T14:02:30.035Z,9.26
2019-01-17T14:05:00.037Z,9.13
2019-01-17T14:07:30.066Z,9.10
2019-01-17T14:10:00.395Z,8.88
2019-01-17T14:12:30.690Z,9.08
2019-01-17T14:15:00.721Z,8.75
2019-01-17T14:17:30.747Z,8.89
2019-01-17T14:20:01.047Z,8.94
2019-01-17T14:22:31.076Z,9.11
2019-01-17T14:25:01.101Z,8.94
2019-01-17T14:27:31.124Z,8.94
2019-01-17T14:30:01.150Z,9.13
2019-01-17T14:32:31.187Z,9.02
2019-01-17T14:35:01.203Z,9.08
2019-01-17T14:37:31.498Z,8.80
2019-01-17T14:40:01.502Z,9.16
2019-01-17T14:42:31.531Z,9.11
2019-01-17T14:45:01.533Z,9.07
2019-01-17T14:47:31.565Z,8.62
2019-01-17T14:50:01.633Z,8.82
2019-01-17T14:52:31.606Z,8.78
2019-01-17T14:55:02.954Z,8.77
2019-01-17T14:57:31.981Z,8.36
2019-01-17T15:00:02.306Z,8.66
2019-01-17T15:02:32.343Z,8.85
2019-01-17T15:05:02.355Z,8.62
2019-01-17T15:07:32.662Z,8.33
2019-01-17T15:10:02.685Z,8.61
2019-01-17T15:12:32.717Z,8.49
2019-01-17T15:15:03.015Z,8.72
2019-01-17T15:17:33.340Z,8.77
2019-01-17T15:20:03.355Z,8.83
2019-01-17T15:22:33.384Z,8.72
2019-01-17T15:25:03.666Z,8.91
2019-01-17T15:27:33.693Z,8.93
2019-01-17T15:30:03.706Z,8.84
2019-01-17T15:32:33.739Z,8.95
2019-01-17T15:35:03.755Z,8.57
2019-01-17T15:37:34.079Z,8.62
2019-01-17T15:40:04.094Z,8.20
2019-01-17T15:42:34.146Z,8.49
2019-01-17T15:45:04.173Z,8.11
2019-01-17T15:47:34.545Z,8.15
2019-01-17T15:50:04.575Z,7.80
2019-01-17T15:52:34.586Z,7.94
2019-01-17T15:55:04.618Z,7.78
2019-01-17T15:57:34.639Z,8.08
2019-01-17T16:02:44.043Z,8.01
2019-01-17T16:05:14.382Z,8.15
2019-01-17T16:07:44.725Z,8.14
2019-01-17T16:10:14.789Z,8.31
2019-01-17T16:12:44.813Z,8.23
2019-01-17T16:15:21.094Z,8.07
2019-01-17T16:17:51.428Z,8.39
2019-01-17T16:20:21.706Z,8.11
2019-01-17T16:22:52.064Z,8.15
2019-01-17T16:25:22.388Z,8.26
2019-01-17T16:27:53.215Z,7.32
2019-01-17T16:30:26.005Z,7.02
2019-01-17T16:32:55.941Z,6.58
2019-01-17T16:35:25.950Z,6.55
2019-01-17T16:37:55.948Z,6.20
2019-01-17T16:40:26.263Z,5.86
2019-01-17T16:42:56.280Z,5.85
2019-01-17T16:45:26.604Z,5.79
2019-01-17T16:47:56.615Z,5.56
2019-01-17T16:50:26.658Z,5.79
2019-01-17T16:52:56.673Z,6.07
2019-01-17T16:55:26.995Z,5.87
2019-01-17T16:57:56.980Z,6.01
2019-01-17T17:00:29.666Z,6.14
2019-01-17T17:02:59.985Z,6.28
2019-01-17T17:05:30.311Z,5.94
2019-01-17T17:08:00.429Z,5.91
2019-01-17T17:10:30.364Z,6.05
2019-01-17T17:13:00.659Z,6.21
2019-01-17T17:15:30.986Z,6.19
2019-01-17T17:18:01.002Z,5.83
2019-01-17T17:20:31.025Z,6.02
2019-01-17T17:23:01.335Z,5.98
2019-01-17T17:25:31.366Z,5.93
2019-01-17T17:28:01.467Z,6.01
2019-01-17T17:30:31.509Z,6.19
2019-01-17T17:33:01.529Z,6.15
2019-01-17T17:35:31.556Z,6.29
2019-01-17T17:38:02.243Z,6.33
2019-01-17T17:40:32.258Z,6.29
2019-01-17T17:43:02.518Z,6.31
2019-01-17T17:45:32.553Z,6.36
2019-01-17T17:48:02.559Z,6.45
2019-01-17T17:50:32.586Z,6.20
2019-01-17T17:53:02.950Z,6.05
2019-01-17T17:55:32.995Z,6.51
2019-01-17T17:58:03.015Z,6.48
2019-01-17T18:00:33.041Z,6.13
2019-01-17T18:03:03.057Z,6.40
2019-01-17T18:05:33.088Z,6.46
2019-01-17T18:08:03.089Z,6.44
2019-01-17T18:10:33.464Z,6.56
2019-01-17T18:13:03.786Z,5.84
2019-01-17T18:15:34.118Z,6.27
2019-01-17T18:18:04.135Z,6.20
2019-01-17T18:20:34.555Z,6.36
2019-01-17T18:23:04.469Z,6.36
2019-01-17T18:25:34.494Z,6.39
2019-01-17T18:28:08.757Z,6.44
2019-01-17T18:30:34.540Z,6.34
2019-01-17T18:33:04.556Z,6.24
2019-01-17T18:35:34.592Z,6.14
2019-01-17T18:38:04.961Z,6.28
2019-01-17T18:40:35.267Z,6.24
2019-01-17T18:43:05.612Z,6.04
2019-01-17T18:45:35.659Z,5.57
2019-01-17T18:48:05.950Z,5.60
2019-01-17T18:50:35.982Z,5.83
2019-01-17T18:53:05.995Z,5.75
2019-01-17T18:55:36.022Z,5.75
2019-01-17T18:58:06.346Z,6.10
2019-01-17T19:00:36.374Z,6.21
2019-01-17T19:03:06.851Z,6.01
2019-01-17T19:05:36.702Z,6.18
2019-01-17T19:08:06.700Z,5.87
2019-01-17T19:10:36.723Z,5.79
2019-01-17T19:13:06.756Z,5.84
2019-01-17T19:15:36.818Z,5.80
2019-01-17T19:18:07.078Z,5.74
2019-01-17T19:20:37.206Z,6.07
2019-01-17T19:23:07.393Z,5.68
2019-01-17T19:25:37.712Z,5.83
2019-01-17T19:28:07.741Z,5.91
2019-01-17T19:30:37.774Z,5.87
2019-01-17T19:33:07.781Z,5.43
2019-01-17T19:35:37.810Z,5.65
2019-01-17T19:38:07.828Z,5.92
2019-01-17T19:40:38.210Z,6.00
2019-01-17T19:43:08.227Z,5.49
2019-01-17T19:45:38.542Z,5.64
2019-01-17T19:48:08.577Z,5.23
2019-01-17T19:50:38.608Z,5.56
2019-01-17T19:53:08.634Z,5.29
2019-01-17T19:55:38.668Z,5.45
2019-01-17T19:58:08.677Z,5.62
2019-01-17T20:00:39.054Z,5.59
2019-01-17T20:03:09.070Z,5.72
2019-01-17T20:05:39.191Z,5.42
2019-01-17T20:10:37.041Z,5.07
2019-01-17T20:13:07.383Z,5.11
2019-01-17T20:15:37.415Z,5.05
2019-01-17T20:18:07.413Z,5.29
2019-01-17T20:20:37.737Z,4.91
2019-01-17T20:23:08.065Z,4.84
2019-01-17T20:25:38.186Z,4.98
2019-01-17T20:28:08.197Z,4.79
2019-01-17T20:30:38.494Z,4.74
2019-01-17T20:33:08.510Z,4.59
2019-01-17T20:35:38.527Z,4.75
2019-01-17T20:38:08.547Z,4.75
2019-01-17T20:40:38.577Z,4.64
2019-01-17T20:43:08.900Z,4.36
2019-01-17T20:45:38.918Z,4.50
2019-01-17T20:48:08.932Z,4.53
2019-01-17T20:50:39.254Z,4.42
2019-01-17T20:53:09.263Z,4.54
2019-01-17T20:55:39.588Z,4.64
2019-01-17T20:58:09.602Z,4.68
2019-01-17T21:00:42.486Z,4.51
2019-01-17T21:03:12.504Z,4.57
2019-01-17T21:05:42.531Z,4.43
2019-01-17T21:08:12.536Z,4.64
2019-01-17T21:10:42.572Z,4.36
2019-01-17T21:13:12.868Z,4.82
2019-01-17T21:15:42.898Z,4.69
2019-01-17T21:18:13.006Z,4.47
2019-01-17T21:20:43.022Z,4.83
2019-01-17T21:23:13.149Z,4.92
2019-01-17T21:25:43.066Z,5.04
2019-01-17T21:28:13.243Z,5.25
2019-01-17T21:30:43.386Z,5.13
2019-01-17T21:33:13.399Z,5.03
2019-01-17T21:35:43.738Z,5.15
2019-01-17T21:38:13.753Z,5.07
2019-01-17T21:40:43.782Z,4.89
2019-01-17T21:43:14.184Z,4.96
2019-01-17T21:45:44.220Z,5.02
2019-01-17T21:48:14.623Z,5.02
2019-01-17T21:50:44.662Z,5.00
2019-01-17T21:53:14.684Z,4.92
2019-01-17T21:55:45.073Z,4.82
2019-01-17T21:58:15.404Z,4.91
2019-01-17T22:00:45.715Z,5.01
2019-01-17T22:03:16.049Z,5.15
2019-01-17T22:05:46.081Z,4.91
2019-01-17T22:08:16.479Z,4.74
2019-01-17T22:10:46.523Z,4.95
2019-01-17T22:13:16.543Z,4.78
2019-01-17T22:15:46.563Z,4.82
2019-01-17T22:18:16.953Z,4.65
2019-01-17T22:20:46.982Z,4.69
2019-01-17T22:23:17.002Z,4.51
2019-01-17T22:25:47.312Z,4.64
2019-01-17T22:28:17.331Z,4.47
2019-01-17T22:30:47.356Z,4.47
2019-01-17T22:33:17.374Z,4.38
2019-01-17T22:35:47.776Z,4.47
2019-01-17T22:38:17.803Z,4.54
2019-01-17T22:40:47.821Z,4.55
2019-01-17T22:43:17.853Z,4.60
2019-01-17T22:45:47.868Z,4.59
2019-01-17T22:48:18.257Z,4.69
2019-01-17T22:50:48.536Z,4.76
2019-01-17T22:53:18.547Z,4.49
2019-01-17T22:55:48.914Z,4.51
2019-01-17T22:58:18.951Z,4.75
2019-01-17T23:00:48.977Z,4.42
2019-01-17T23:03:19.025Z,4.33
2019-01-17T23:05:49.084Z,4.46
2019-01-17T23:08:19.113Z,4.56
2019-01-17T23:10:49.130Z,4.53
2019-01-17T23:13:19.168Z,4.21
2019-01-17T23:15:49.186Z,4.40
2019-01-17T23:18:19.224Z,4.56
2019-01-17T23:20:49.246Z,4.43
2019-01-17T23:23:19.277Z,4.66
2019-01-17T23:25:49.383Z,4.59
2019-01-17T23:28:19.303Z,4.58
2019-01-17T23:30:49.650Z,4.55
2019-01-17T23:33:20.002Z,4.73
2019-01-17T23:35:50.017Z,4.39
2019-01-17T23:38:20.047Z,4.28
2019-01-17T23:40:50.115Z,4.13
2019-01-17T23:43:20.431Z,4.21
2019-01-17T23:45:50.452Z,4.19
2019-01-17T23:48:20.511Z,4.28
2019-01-17T23:50:50.785Z,4.44
2019-01-17T23:53:20.819Z,4.22
2019-01-17T23:55:50.833Z,4.24
2019-01-17T23:58:20.853Z,4.48
